TAF KMOB
AMD KMOB 091004Z 0910/1006 00000KT 5SM BR SKC FM091400 11005KT P6SM OVC007 FM092100 14006KT 6SM BR OVC005=
METAR KMOB
WC KMOB
WS KMOB
WV KMOB